sensor_id;sensor_type;location;lat;lon;timestamp;temperature;humidity
71837;DHT22;59686;51.716;7.016;2022-08-30T00:02:06;24.50;53.20
71837;DHT22;59686;51.716;7.016;2022-08-30T00:04:31;24.50;53.20
71837;DHT22;59686;51.716;7.016;2022-08-30T00:06:58;24.50;53.20
71837;DHT22;59686;51.716;7.016;2022-08-30T00:09:24;24.50;53.30
71837;DHT22;59686;51.716;7.016;2022-08-30T00:11:49;24.50;53.30
71837;DHT22;59686;51.716;7.016;2022-08-30T00:14:16;24.50;53.30
71837;DHT22;59686;51.716;7.016;2022-08-30T00:16:42;24.50;53.30
71837;DHT22;59686;51.716;7.016;2022-08-30T00:19:08;24.50;53.30
71837;DHT22;59686;51.716;7.016;2022-08-30T00:21:33;24.50;53.30
71837;DHT22;59686;51.716;7.016;2022-08-30T00:24:01;24.50;53.40
71837;DHT22;59686;51.716;7.016;2022-08-30T00:26:27;24.50;53.50
71837;DHT22;59686;51.716;7.016;2022-08-30T00:28:53;24.40;53.40
71837;DHT22;59686;51.716;7.016;2022-08-30T00:31:19;24.40;53.40
71837;DHT22;59686;51.716;7.016;2022-08-30T00:33:45;24.40;53.40
71837;DHT22;59686;51.716;7.016;2022-08-30T00:36:10;24.40;53.40
71837;DHT22;59686;51.716;7.016;2022-08-30T00:38:42;24.40;53.50
71837;DHT22;59686;51.716;7.016;2022-08-30T00:41:08;24.40;54.10
71837;DHT22;59686;51.716;7.016;2022-08-30T00:43:35;24.40;53.50
71837;DHT22;59686;51.716;7.016;2022-08-30T00:46:00;24.40;53.50
71837;DHT22;59686;51.716;7.016;2022-08-30T00:48:40;24.30;53.50
71837;DHT22;59686;51.716;7.016;2022-08-30T00:51:09;24.40;53.50
71837;DHT22;59686;51.716;7.016;2022-08-30T00:53:39;24.40;53.60
71837;DHT22;59686;51.716;7.016;2022-08-30T00:56:05;24.30;53.50
71837;DHT22;59686;51.716;7.016;2022-08-30T00:58:47;24.30;53.60
71837;DHT22;59686;51.716;7.016;2022-08-30T01:01:13;24.30;53.60
71837;DHT22;59686;51.716;7.016;2022-08-30T01:03:40;24.30;53.60
71837;DHT22;59686;51.716;7.016;2022-08-30T01:06:07;24.30;53.60
71837;DHT22;59686;51.716;7.016;2022-08-30T01:08:33;24.30;53.70
71837;DHT22;59686;51.716;7.016;2022-08-30T01:11:00;24.30;53.70
71837;DHT22;59686;51.716;7.016;2022-08-30T01:13:26;24.30;53.70
71837;DHT22;59686;51.716;7.016;2022-08-30T01:15:53;24.30;53.70
71837;DHT22;59686;51.716;7.016;2022-08-30T01:18:19;24.30;53.70
71837;DHT22;59686;51.716;7.016;2022-08-30T01:20:50;24.20;53.70
71837;DHT22;59686;51.716;7.016;2022-08-30T01:23:39;24.30;53.70
71837;DHT22;59686;51.716;7.016;2022-08-30T01:26:08;24.30;53.60
71837;DHT22;59686;51.716;7.016;2022-08-30T01:28:34;24.20;53.60
71837;DHT22;59686;51.716;7.016;2022-08-30T01:31:00;24.20;53.70
71837;DHT22;59686;51.716;7.016;2022-08-30T01:33:26;24.20;53.70
71837;DHT22;59686;51.716;7.016;2022-08-30T01:35:55;24.20;53.60
71837;DHT22;59686;51.716;7.016;2022-08-30T01:38:23;24.20;53.60
71837;DHT22;59686;51.716;7.016;2022-08-30T01:40:51;24.20;53.70
71837;DHT22;59686;51.716;7.016;2022-08-30T01:43:21;24.20;53.70
71837;DHT22;59686;51.716;7.016;2022-08-30T01:45:46;24.10;53.70
71837;DHT22;59686;51.716;7.016;2022-08-30T01:48:13;24.10;53.70
71837;DHT22;59686;51.716;7.016;2022-08-30T01:50:40;24.10;53.70
71837;DHT22;59686;51.716;7.016;2022-08-30T01:53:07;24.10;53.70
71837;DHT22;59686;51.716;7.016;2022-08-30T01:55:33;24.10;53.70
71837;DHT22;59686;51.716;7.016;2022-08-30T01:57:59;24.10;53.80
71837;DHT22;59686;51.716;7.016;2022-08-30T02:00:41;24.10;53.70
71837;DHT22;59686;51.716;7.016;2022-08-30T02:03:07;24.10;53.70
71837;DHT22;59686;51.716;7.016;2022-08-30T02:05:33;24.10;54.40
71837;DHT22;59686;51.716;7.016;2022-08-30T02:07:59;24.10;53.80
71837;DHT22;59686;51.716;7.016;2022-08-30T02:10:25;24.10;53.80
71837;DHT22;59686;51.716;7.016;2022-08-30T02:12:50;24.10;53.80
71837;DHT22;59686;51.716;7.016;2022-08-30T02:15:16;24.00;53.80
71837;DHT22;59686;51.716;7.016;2022-08-30T02:17:42;24.00;53.80
71837;DHT22;59686;51.716;7.016;2022-08-30T02:20:15;24.00;53.80
71837;DHT22;59686;51.716;7.016;2022-08-30T02:22:44;24.00;53.80
71837;DHT22;59686;51.716;7.016;2022-08-30T02:25:10;24.00;54.50
71837;DHT22;59686;51.716;7.016;2022-08-30T02:27:39;24.00;53.90
71837;DHT22;59686;51.716;7.016;2022-08-30T02:30:14;24.00;53.90
71837;DHT22;59686;51.716;7.016;2022-08-30T02:32:43;24.00;53.90
71837;DHT22;59686;51.716;7.016;2022-08-30T02:35:09;24.00;53.90
71837;DHT22;59686;51.716;7.016;2022-08-30T02:37:35;24.00;54.00
71837;DHT22;59686;51.716;7.016;2022-08-30T02:40:01;23.90;53.90
71837;DHT22;59686;51.716;7.016;2022-08-30T02:42:27;23.90;53.90
71837;DHT22;59686;51.716;7.016;2022-08-30T02:44:52;23.90;54.00
71837;DHT22;59686;51.716;7.016;2022-08-30T02:47:18;23.90;54.00
71837;DHT22;59686;51.716;7.016;2022-08-30T02:49:44;23.90;54.00
71837;DHT22;59686;51.716;7.016;2022-08-30T02:52:10;23.90;54.10
71837;DHT22;59686;51.716;7.016;2022-08-30T02:54:35;23.90;54.10
71837;DHT22;59686;51.716;7.016;2022-08-30T02:57:01;23.90;54.10
71837;DHT22;59686;51.716;7.016;2022-08-30T02:59:29;23.90;54.10
71837;DHT22;59686;51.716;7.016;2022-08-30T03:01:55;23.80;54.10
71837;DHT22;59686;51.716;7.016;2022-08-30T03:04:21;23.80;54.80
71837;DHT22;59686;51.716;7.016;2022-08-30T03:06:48;23.80;54.20
71837;DHT22;59686;51.716;7.016;2022-08-30T03:09:13;23.80;54.20
71837;DHT22;59686;51.716;7.016;2022-08-30T03:11:39;23.80;54.80
71837;DHT22;59686;51.716;7.016;2022-08-30T03:14:06;23.80;54.30
71837;DHT22;59686;51.716;7.016;2022-08-30T03:16:32;23.80;54.30
71837;DHT22;59686;51.716;7.016;2022-08-30T03:18:57;23.80;55.00
71837;DHT22;59686;51.716;7.016;2022-08-30T03:21:26;23.80;54.40
71837;DHT22;59686;51.716;7.016;2022-08-30T03:24:07;23.70;54.40
71837;DHT22;59686;51.716;7.016;2022-08-30T03:26:33;23.70;54.40
71837;DHT22;59686;51.716;7.016;2022-08-30T03:28:59;23.70;54.40
71837;DHT22;59686;51.716;7.016;2022-08-30T03:31:24;23.70;54.40
71837;DHT22;59686;51.716;7.016;2022-08-30T03:33:50;23.70;54.50
71837;DHT22;59686;51.716;7.016;2022-08-30T03:36:15;23.70;54.50
71837;DHT22;59686;51.716;7.016;2022-08-30T03:38:41;23.70;54.50
71837;DHT22;59686;51.716;7.016;2022-08-30T03:41:07;23.70;54.50
71837;DHT22;59686;51.716;7.016;2022-08-30T03:43:33;23.70;54.60
71837;DHT22;59686;51.716;7.016;2022-08-30T03:46:00;23.70;54.60
71837;DHT22;59686;51.716;7.016;2022-08-30T03:48:27;23.60;54.60
71837;DHT22;59686;51.716;7.016;2022-08-30T03:50:53;23.60;54.60
71837;DHT22;59686;51.716;7.016;2022-08-30T03:53:19;23.60;54.70
71837;DHT22;59686;51.716;7.016;2022-08-30T03:55:44;23.60;54.70
71837;DHT22;59686;51.716;7.016;2022-08-30T03:58:10;23.60;54.70
71837;DHT22;59686;51.716;7.016;2022-08-30T04:00:38;23.60;54.80
71837;DHT22;59686;51.716;7.016;2022-08-30T04:03:04;23.60;54.80
71837;DHT22;59686;51.716;7.016;2022-08-30T04:05:30;23.60;54.80
71837;DHT22;59686;51.716;7.016;2022-08-30T04:07:56;23.50;54.90
71837;DHT22;59686;51.716;7.016;2022-08-30T04:10:22;23.50;54.90
71837;DHT22;59686;51.716;7.016;2022-08-30T04:12:48;23.50;54.90
71837;DHT22;59686;51.716;7.016;2022-08-30T04:15:14;23.50;54.90
71837;DHT22;59686;51.716;7.016;2022-08-30T04:17:41;23.50;55.00
71837;DHT22;59686;51.716;7.016;2022-08-30T04:20:07;23.50;55.00
71837;DHT22;59686;51.716;7.016;2022-08-30T04:22:33;23.50;55.00
71837;DHT22;59686;51.716;7.016;2022-08-30T04:24:58;23.50;55.10
71837;DHT22;59686;51.716;7.016;2022-08-30T04:27:24;23.50;55.20
71837;DHT22;59686;51.716;7.016;2022-08-30T04:29:50;23.50;55.20
71837;DHT22;59686;51.716;7.016;2022-08-30T04:32:16;23.50;55.20
71837;DHT22;59686;51.716;7.016;2022-08-30T04:34:42;23.40;55.20
71837;DHT22;59686;51.716;7.016;2022-08-30T04:37:08;23.40;55.20
71837;DHT22;59686;51.716;7.016;2022-08-30T04:39:34;23.40;55.30
71837;DHT22;59686;51.716;7.016;2022-08-30T04:41:59;23.40;55.30
71837;DHT22;59686;51.716;7.016;2022-08-30T04:44:27;23.40;55.40
71837;DHT22;59686;51.716;7.016;2022-08-30T04:46:53;23.40;55.40
71837;DHT22;59686;51.716;7.016;2022-08-30T04:49:19;23.40;55.40
71837;DHT22;59686;51.716;7.016;2022-08-30T04:51:45;23.40;55.50
71837;DHT22;59686;51.716;7.016;2022-08-30T04:54:11;23.40;55.50
71837;DHT22;59686;51.716;7.016;2022-08-30T04:56:37;23.30;55.50
71837;DHT22;59686;51.716;7.016;2022-08-30T04:59:03;23.30;55.50
71837;DHT22;59686;51.716;7.016;2022-08-30T05:01:30;23.30;55.50
71837;DHT22;59686;51.716;7.016;2022-08-30T05:03:57;23.30;55.60
71837;DHT22;59686;51.716;7.016;2022-08-30T05:06:24;23.30;55.60
71837;DHT22;59686;51.716;7.016;2022-08-30T05:08:52;23.30;55.70
71837;DHT22;59686;51.716;7.016;2022-08-30T05:11:19;23.30;55.70
71837;DHT22;59686;51.716;7.016;2022-08-30T05:13:45;23.30;55.70
71837;DHT22;59686;51.716;7.016;2022-08-30T05:16:11;23.30;55.80
71837;DHT22;59686;51.716;7.016;2022-08-30T05:18:46;23.30;55.80
71837;DHT22;59686;51.716;7.016;2022-08-30T05:21:14;23.20;55.80
71837;DHT22;59686;51.716;7.016;2022-08-30T05:23:53;23.20;55.80
71837;DHT22;59686;51.716;7.016;2022-08-30T05:26:26;23.20;55.90
71837;DHT22;59686;51.716;7.016;2022-08-30T05:28:52;23.20;55.90
71837;DHT22;59686;51.716;7.016;2022-08-30T05:31:25;23.20;55.90
71837;DHT22;59686;51.716;7.016;2022-08-30T05:33:52;23.20;55.90
71837;DHT22;59686;51.716;7.016;2022-08-30T05:36:21;23.20;56.00
71837;DHT22;59686;51.716;7.016;2022-08-30T05:38:48;23.20;56.00
71837;DHT22;59686;51.716;7.016;2022-08-30T05:41:14;23.20;56.10
71837;DHT22;59686;51.716;7.016;2022-08-30T05:43:43;23.20;56.10
71837;DHT22;59686;51.716;7.016;2022-08-30T05:46:27;23.20;56.10
71837;DHT22;59686;51.716;7.016;2022-08-30T05:48:58;23.20;56.10
71837;DHT22;59686;51.716;7.016;2022-08-30T05:51:27;23.20;56.20
71837;DHT22;59686;51.716;7.016;2022-08-30T05:53:53;23.20;56.20
71837;DHT22;59686;51.716;7.016;2022-08-30T05:56:29;23.20;56.80
71837;DHT22;59686;51.716;7.016;2022-08-30T05:58:55;23.20;56.30
71837;DHT22;59686;51.716;7.016;2022-08-30T06:01:24;23.10;56.20
71837;DHT22;59686;51.716;7.016;2022-08-30T06:03:50;23.10;56.30
71837;DHT22;59686;51.716;7.016;2022-08-30T06:06:16;23.10;56.30
71837;DHT22;59686;51.716;7.016;2022-08-30T06:08:42;23.10;56.30
71837;DHT22;59686;51.716;7.016;2022-08-30T06:11:11;23.10;56.30
71837;DHT22;59686;51.716;7.016;2022-08-30T06:13:37;23.10;56.30
71837;DHT22;59686;51.716;7.016;2022-08-30T06:16:03;23.10;56.30
71837;DHT22;59686;51.716;7.016;2022-08-30T06:18:29;23.10;56.40
71837;DHT22;59686;51.716;7.016;2022-08-30T06:20:55;23.10;56.40
71837;DHT22;59686;51.716;7.016;2022-08-30T06:23:22;23.10;56.40
71837;DHT22;59686;51.716;7.016;2022-08-30T06:25:47;23.00;56.40
71837;DHT22;59686;51.716;7.016;2022-08-30T06:28:13;23.00;56.40
71837;DHT22;59686;51.716;7.016;2022-08-30T06:30:40;23.00;56.40
71837;DHT22;59686;51.716;7.016;2022-08-30T06:33:07;23.00;56.50
71837;DHT22;59686;51.716;7.016;2022-08-30T06:35:33;23.00;56.50
71837;DHT22;59686;51.716;7.016;2022-08-30T06:37:59;23.00;56.50
71837;DHT22;59686;51.716;7.016;2022-08-30T06:40:25;23.00;56.50
71837;DHT22;59686;51.716;7.016;2022-08-30T06:42:50;23.00;56.50
71837;DHT22;59686;51.716;7.016;2022-08-30T06:45:17;23.00;56.60
71837;DHT22;59686;51.716;7.016;2022-08-30T06:47:43;23.00;56.60
71837;DHT22;59686;51.716;7.016;2022-08-30T06:50:10;23.00;56.60
71837;DHT22;59686;51.716;7.016;2022-08-30T06:52:37;23.00;56.60
71837;DHT22;59686;51.716;7.016;2022-08-30T06:55:03;23.00;56.60
71837;DHT22;59686;51.716;7.016;2022-08-30T06:57:28;23.00;56.60
71837;DHT22;59686;51.716;7.016;2022-08-30T06:59:57;23.00;56.60
71837;DHT22;59686;51.716;7.016;2022-08-30T07:02:24;23.00;56.70
71837;DHT22;59686;51.716;7.016;2022-08-30T07:04:49;23.00;56.70
71837;DHT22;59686;51.716;7.016;2022-08-30T07:07:15;23.00;56.80
71837;DHT22;59686;51.716;7.016;2022-08-30T07:09:41;22.90;56.80
71837;DHT22;59686;51.716;7.016;2022-08-30T07:12:09;22.90;56.80
71837;DHT22;59686;51.716;7.016;2022-08-30T07:14:38;22.90;56.80
71837;DHT22;59686;51.716;7.016;2022-08-30T07:17:05;22.90;56.80
71837;DHT22;59686;51.716;7.016;2022-08-30T07:19:57;22.90;56.80
71837;DHT22;59686;51.716;7.016;2022-08-30T07:22:48;22.90;56.90
71837;DHT22;59686;51.716;7.016;2022-08-30T07:25:40;22.90;56.90
71837;DHT22;59686;51.716;7.016;2022-08-30T07:28:32;22.90;57.00
71837;DHT22;59686;51.716;7.016;2022-08-30T07:31:23;22.90;57.00
71837;DHT22;59686;51.716;7.016;2022-08-30T07:34:14;22.90;57.10
71837;DHT22;59686;51.716;7.016;2022-08-30T07:37:05;22.90;57.10
71837;DHT22;59686;51.716;7.016;2022-08-30T07:40:01;22.90;57.10
71837;DHT22;59686;51.716;7.016;2022-08-30T07:42:52;22.90;57.10
71837;DHT22;59686;51.716;7.016;2022-08-30T07:45:43;22.90;57.10
71837;DHT22;59686;51.716;7.016;2022-08-30T07:48:34;22.90;57.10
71837;DHT22;59686;51.716;7.016;2022-08-30T07:51:26;22.90;57.20
71837;DHT22;59686;51.716;7.016;2022-08-30T07:54:17;22.90;57.10
71837;DHT22;59686;51.716;7.016;2022-08-30T07:57:08;22.90;57.20
71837;DHT22;59686;51.716;7.016;2022-08-30T07:59:59;22.90;57.20
71837;DHT22;59686;51.716;7.016;2022-08-30T08:02:50;22.80;57.10
71837;DHT22;59686;51.716;7.016;2022-08-30T08:05:43;22.80;57.10
71837;DHT22;59686;51.716;7.016;2022-08-30T08:08:36;22.80;57.10
71837;DHT22;59686;51.716;7.016;2022-08-30T08:11:27;22.80;57.20
71837;DHT22;59686;51.716;7.016;2022-08-30T08:14:18;22.80;57.80
71837;DHT22;59686;51.716;7.016;2022-08-30T08:17:09;22.80;57.10
71837;DHT22;59686;51.716;7.016;2022-08-30T08:20:00;22.80;57.20
71837;DHT22;59686;51.716;7.016;2022-08-30T12:00:32;23.10;55.70
71837;DHT22;59686;51.716;7.016;2022-08-30T12:03:05;23.10;55.70
71837;DHT22;59686;51.716;7.016;2022-08-30T12:11:01;23.10;55.50
71837;DHT22;59686;51.716;7.016;2022-08-30T12:18:47;23.20;55.40
71837;DHT22;59686;51.716;7.016;2022-08-30T12:26:50;23.20;55.20
71837;DHT22;59686;51.716;7.016;2022-08-30T12:29:24;23.20;55.10
71837;DHT22;59686;51.716;7.016;2022-08-30T12:32:03;23.20;55.10
71837;DHT22;59686;51.716;7.016;2022-08-30T12:34:37;23.30;55.10
71837;DHT22;59686;51.716;7.016;2022-08-30T12:39:52;23.30;54.90
71837;DHT22;59686;51.716;7.016;2022-08-30T12:42:28;23.40;54.90
71837;DHT22;59686;51.716;7.016;2022-08-30T12:44:59;23.40;54.90
71837;DHT22;59686;51.716;7.016;2022-08-30T12:47:43;23.40;54.80
71837;DHT22;59686;51.716;7.016;2022-08-30T12:50:14;23.40;54.70
71837;DHT22;59686;51.716;7.016;2022-08-30T12:52:43;23.40;54.70
71837;DHT22;59686;51.716;7.016;2022-08-30T12:55:20;23.50;54.60
71837;DHT22;59686;51.716;7.016;2022-08-30T12:58:00;23.60;54.20
71837;DHT22;59686;51.716;7.016;2022-08-30T13:00:29;23.60;53.80
71837;DHT22;59686;51.716;7.016;2022-08-30T13:02:58;23.60;53.50
71837;DHT22;59686;51.716;7.016;2022-08-30T13:05:46;23.70;53.30
71837;DHT22;59686;51.716;7.016;2022-08-30T13:13:37;23.70;52.70
71837;DHT22;59686;51.716;7.016;2022-08-30T13:16:09;23.70;52.60
71837;DHT22;59686;51.716;7.016;2022-08-30T13:18:35;23.70;52.20
71837;DHT22;59686;51.716;7.016;2022-08-30T13:21:22;23.80;52.10
71837;DHT22;59686;51.716;7.016;2022-08-30T13:23:49;23.80;51.90
71837;DHT22;59686;51.716;7.016;2022-08-30T13:26:20;23.80;51.90
71837;DHT22;59686;51.716;7.016;2022-08-30T13:28:49;23.90;51.90
71837;DHT22;59686;51.716;7.016;2022-08-30T13:31:15;23.80;51.70
71837;DHT22;59686;51.716;7.016;2022-08-30T13:33:41;23.90;51.50
71837;DHT22;59686;51.716;7.016;2022-08-30T13:36:13;23.90;51.20
71837;DHT22;59686;51.716;7.016;2022-08-30T13:38:39;23.90;50.90
71837;DHT22;59686;51.716;7.016;2022-08-30T13:41:06;24.00;50.90
71837;DHT22;59686;51.716;7.016;2022-08-30T13:43:31;24.10;50.80
71837;DHT22;59686;51.716;7.016;2022-08-30T13:45:57;24.10;50.60
71837;DHT22;59686;51.716;7.016;2022-08-30T13:48:24;24.20;50.50
71837;DHT22;59686;51.716;7.016;2022-08-30T13:50:50;24.20;50.50
71837;DHT22;59686;51.716;7.016;2022-08-30T13:53:15;24.30;50.20
71837;DHT22;59686;51.716;7.016;2022-08-30T13:55:47;24.30;50.00
71837;DHT22;59686;51.716;7.016;2022-08-30T13:58:13;24.30;50.00
71837;DHT22;59686;51.716;7.016;2022-08-30T14:00:41;24.30;49.70
71837;DHT22;59686;51.716;7.016;2022-08-30T14:03:07;24.30;49.50
71837;DHT22;59686;51.716;7.016;2022-08-30T14:05:44;24.30;50.00
71837;DHT22;59686;51.716;7.016;2022-08-30T14:08:12;24.30;49.20
71837;DHT22;59686;51.716;7.016;2022-08-30T14:10:38;24.30;49.20
71837;DHT22;59686;51.716;7.016;2022-08-30T14:13:04;24.30;49.10
71837;DHT22;59686;51.716;7.016;2022-08-30T14:15:31;24.30;49.00
71837;DHT22;59686;51.716;7.016;2022-08-30T14:17:57;24.30;49.00
71837;DHT22;59686;51.716;7.016;2022-08-30T14:20:23;24.30;48.90
71837;DHT22;59686;51.716;7.016;2022-08-30T14:22:56;24.40;48.90
71837;DHT22;59686;51.716;7.016;2022-08-30T14:25:22;24.50;48.90
71837;DHT22;59686;51.716;7.016;2022-08-30T14:27:47;24.50;49.00
71837;DHT22;59686;51.716;7.016;2022-08-30T14:30:13;24.50;49.00
71837;DHT22;59686;51.716;7.016;2022-08-30T14:32:39;24.50;49.00
71837;DHT22;59686;51.716;7.016;2022-08-30T14:35:05;24.50;49.00
71837;DHT22;59686;51.716;7.016;2022-08-30T14:37:31;24.50;49.00
71837;DHT22;59686;51.716;7.016;2022-08-30T14:39:57;24.60;49.10
71837;DHT22;59686;51.716;7.016;2022-08-30T14:42:22;24.60;49.00
71837;DHT22;59686;51.716;7.016;2022-08-30T14:44:58;24.50;48.90
71837;DHT22;59686;51.716;7.016;2022-08-30T14:47:24;24.60;48.80
71837;DHT22;59686;51.716;7.016;2022-08-30T14:49:50;24.60;48.90
71837;DHT22;59686;51.716;7.016;2022-08-30T14:52:15;24.60;48.90
71837;DHT22;59686;51.716;7.016;2022-08-30T14:54:41;24.60;48.90
71837;DHT22;59686;51.716;7.016;2022-08-30T14:57:07;24.60;48.90
71837;DHT22;59686;51.716;7.016;2022-08-30T14:59:32;24.60;48.90
71837;DHT22;59686;51.716;7.016;2022-08-30T15:01:58;24.60;48.90
71837;DHT22;59686;51.716;7.016;2022-08-30T15:04:24;24.60;48.90
71837;DHT22;59686;51.716;7.016;2022-08-30T15:06:50;24.60;48.80
71837;DHT22;59686;51.716;7.016;2022-08-30T15:09:19;24.70;48.80
71837;DHT22;59686;51.716;7.016;2022-08-30T15:11:46;24.60;48.70
71837;DHT22;59686;51.716;7.016;2022-08-30T15:14:15;24.60;49.30
71837;DHT22;59686;51.716;7.016;2022-08-30T15:16:41;24.60;48.50
71837;DHT22;59686;51.716;7.016;2022-08-30T15:19:08;24.60;48.50
71837;DHT22;59686;51.716;7.016;2022-08-30T15:21:40;24.60;48.40
71837;DHT22;59686;51.716;7.016;2022-08-30T15:24:07;24.70;48.40
71837;DHT22;59686;51.716;7.016;2022-08-30T15:26:34;24.70;48.30
71837;DHT22;59686;51.716;7.016;2022-08-30T15:29:01;24.70;48.20
71837;DHT22;59686;51.716;7.016;2022-08-30T15:31:28;24.70;48.20
71837;DHT22;59686;51.716;7.016;2022-08-30T15:33:57;24.70;48.10
71837;DHT22;59686;51.716;7.016;2022-08-30T15:36:23;24.70;48.10
71837;DHT22;59686;51.716;7.016;2022-08-30T15:38:51;24.80;47.90
71837;DHT22;59686;51.716;7.016;2022-08-30T15:41:17;24.80;47.80
71837;DHT22;59686;51.716;7.016;2022-08-30T15:43:50;24.80;47.70
71837;DHT22;59686;51.716;7.016;2022-08-30T15:48:45;24.90;47.30
71837;DHT22;59686;51.716;7.016;2022-08-30T15:51:11;25.00;47.10
71837;DHT22;59686;51.716;7.016;2022-08-30T15:53:37;25.00;46.90
71837;DHT22;59686;51.716;7.016;2022-08-30T15:56:17;25.10;46.70
71837;DHT22;59686;51.716;7.016;2022-08-30T15:58:44;25.10;46.70
71837;DHT22;59686;51.716;7.016;2022-08-30T16:01:10;25.10;46.70
71837;DHT22;59686;51.716;7.016;2022-08-30T16:03:36;25.10;46.50
71837;DHT22;59686;51.716;7.016;2022-08-30T16:06:12;25.10;46.30
71837;DHT22;59686;51.716;7.016;2022-08-30T16:08:39;25.10;46.40
71837;DHT22;59686;51.716;7.016;2022-08-30T16:11:08;25.10;46.40
71837;DHT22;59686;51.716;7.016;2022-08-30T16:13:34;25.10;46.50
71837;DHT22;59686;51.716;7.016;2022-08-30T16:16:02;25.20;46.60
71837;DHT22;59686;51.716;7.016;2022-08-30T16:18:28;25.20;46.50
71837;DHT22;59686;51.716;7.016;2022-08-30T16:21:06;25.20;46.50
71837;DHT22;59686;51.716;7.016;2022-08-30T16:23:35;25.20;46.40
71837;DHT22;59686;51.716;7.016;2022-08-30T16:26:01;25.20;46.20
71837;DHT22;59686;51.716;7.016;2022-08-30T16:28:27;25.20;46.30
71837;DHT22;59686;51.716;7.016;2022-08-30T16:30:53;25.20;46.30
71837;DHT22;59686;51.716;7.016;2022-08-30T16:33:19;25.20;46.10
71837;DHT22;59686;51.716;7.016;2022-08-30T16:35:49;25.20;45.90
71837;DHT22;59686;51.716;7.016;2022-08-30T16:38:15;25.10;46.00
71837;DHT22;59686;51.716;7.016;2022-08-30T16:40:40;25.10;45.90
71837;DHT22;59686;51.716;7.016;2022-08-30T16:43:06;25.00;46.10
71837;DHT22;59686;51.716;7.016;2022-08-30T16:45:32;25.00;46.30
71837;DHT22;59686;51.716;7.016;2022-08-30T16:47:57;25.00;46.50
71837;DHT22;59686;51.716;7.016;2022-08-30T16:50:23;25.00;46.40
71837;DHT22;59686;51.716;7.016;2022-08-30T16:52:49;25.00;46.40
71837;DHT22;59686;51.716;7.016;2022-08-30T16:55:15;25.00;46.50
71837;DHT22;59686;51.716;7.016;2022-08-30T16:57:47;25.00;46.60
71837;DHT22;59686;51.716;7.016;2022-08-30T17:00:14;25.00;46.60
71837;DHT22;59686;51.716;7.016;2022-08-30T17:02:40;25.00;46.60
71837;DHT22;59686;51.716;7.016;2022-08-30T17:05:06;25.00;46.60
71837;DHT22;59686;51.716;7.016;2022-08-30T17:07:32;25.00;46.70
71837;DHT22;59686;51.716;7.016;2022-08-30T17:09:57;25.00;46.70
71837;DHT22;59686;51.716;7.016;2022-08-30T17:12:23;24.90;46.80
71837;DHT22;59686;51.716;7.016;2022-08-30T17:14:49;24.80;46.80
71837;DHT22;59686;51.716;7.016;2022-08-30T17:17:15;24.80;46.70
71837;DHT22;59686;51.716;7.016;2022-08-30T17:19:41;24.80;47.10
71837;DHT22;59686;51.716;7.016;2022-08-30T17:22:12;24.80;47.10
71837;DHT22;59686;51.716;7.016;2022-08-30T17:24:38;24.80;47.30
71837;DHT22;59686;51.716;7.016;2022-08-30T17:27:05;24.80;47.30
71837;DHT22;59686;51.716;7.016;2022-08-30T17:29:35;24.80;47.40
71837;DHT22;59686;51.716;7.016;2022-08-30T17:32:01;24.90;47.50
71837;DHT22;59686;51.716;7.016;2022-08-30T17:34:27;24.90;47.60
71837;DHT22;59686;51.716;7.016;2022-08-30T17:36:53;24.90;47.60
71837;DHT22;59686;51.716;7.016;2022-08-30T17:39:21;24.90;47.60
71837;DHT22;59686;51.716;7.016;2022-08-30T17:41:48;25.00;47.70
71837;DHT22;59686;51.716;7.016;2022-08-30T17:44:15;25.00;48.30
71837;DHT22;59686;51.716;7.016;2022-08-30T17:46:43;25.00;47.80
71837;DHT22;59686;51.716;7.016;2022-08-30T17:49:11;25.00;47.80
71837;DHT22;59686;51.716;7.016;2022-08-30T17:51:37;25.00;47.90
71837;DHT22;59686;51.716;7.016;2022-08-30T17:54:06;25.00;48.50
71837;DHT22;59686;51.716;7.016;2022-08-30T17:56:32;25.00;47.90
71837;DHT22;59686;51.716;7.016;2022-08-30T17:58:57;25.10;48.10
71837;DHT22;59686;51.716;7.016;2022-08-30T18:01:23;25.10;48.20
71837;DHT22;59686;51.716;7.016;2022-08-30T18:03:48;25.10;48.30
71837;DHT22;59686;51.716;7.016;2022-08-30T18:06:17;25.10;48.50
71837;DHT22;59686;51.716;7.016;2022-08-30T18:08:43;25.10;48.60
71837;DHT22;59686;51.716;7.016;2022-08-30T18:11:09;25.10;48.60
71837;DHT22;59686;51.716;7.016;2022-08-30T18:13:35;25.10;48.80
71837;DHT22;59686;51.716;7.016;2022-08-30T18:16:14;25.10;49.00
71837;DHT22;59686;51.716;7.016;2022-08-30T18:18:40;25.10;49.10
71837;DHT22;59686;51.716;7.016;2022-08-30T18:21:13;25.10;49.30
71837;DHT22;59686;51.716;7.016;2022-08-30T18:23:39;25.20;49.50
71837;DHT22;59686;51.716;7.016;2022-08-30T18:26:05;25.20;49.60
71837;DHT22;59686;51.716;7.016;2022-08-30T18:28:32;25.20;49.60
71837;DHT22;59686;51.716;7.016;2022-08-30T18:30:58;25.20;49.70
71837;DHT22;59686;51.716;7.016;2022-08-30T18:33:25;25.20;49.80
71837;DHT22;59686;51.716;7.016;2022-08-30T18:35:51;25.30;49.80
71837;DHT22;59686;51.716;7.016;2022-08-30T18:38:19;25.30;49.90
71837;DHT22;59686;51.716;7.016;2022-08-30T18:40:56;25.30;50.00
71837;DHT22;59686;51.716;7.016;2022-08-30T18:43:22;25.30;49.90
71837;DHT22;59686;51.716;7.016;2022-08-30T18:45:47;25.30;50.00
71837;DHT22;59686;51.716;7.016;2022-08-30T18:48:16;25.30;50.10
71837;DHT22;59686;51.716;7.016;2022-08-30T18:50:51;25.30;50.10
71837;DHT22;59686;51.716;7.016;2022-08-30T18:53:17;25.40;50.10
71837;DHT22;59686;51.716;7.016;2022-08-30T18:55:43;25.40;50.20
71837;DHT22;59686;51.716;7.016;2022-08-30T18:58:08;25.40;50.20
71837;DHT22;59686;51.716;7.016;2022-08-30T19:00:35;25.40;50.20
71837;DHT22;59686;51.716;7.016;2022-08-30T19:03:01;25.40;50.30
71837;DHT22;59686;51.716;7.016;2022-08-30T19:05:26;25.40;50.30
71837;DHT22;59686;51.716;7.016;2022-08-30T19:07:52;25.40;50.30
71837;DHT22;59686;51.716;7.016;2022-08-30T19:10:22;25.40;50.30
71837;DHT22;59686;51.716;7.016;2022-08-30T19:12:48;25.40;50.40
71837;DHT22;59686;51.716;7.016;2022-08-30T19:15:14;25.40;50.40
71837;DHT22;59686;51.716;7.016;2022-08-30T19:17:47;25.40;50.50
71837;DHT22;59686;51.716;7.016;2022-08-30T19:20:18;25.40;50.60
71837;DHT22;59686;51.716;7.016;2022-08-30T19:22:52;25.40;50.60
71837;DHT22;59686;51.716;7.016;2022-08-30T19:25:20;25.40;50.60
71837;DHT22;59686;51.716;7.016;2022-08-30T19:27:49;25.40;50.70
71837;DHT22;59686;51.716;7.016;2022-08-30T19:30:19;25.40;51.40
71837;DHT22;59686;51.716;7.016;2022-08-30T19:32:46;25.40;50.80
71837;DHT22;59686;51.716;7.016;2022-08-30T19:35:12;25.40;50.80
71837;DHT22;59686;51.716;7.016;2022-08-30T19:37:42;25.40;50.90
71837;DHT22;59686;51.716;7.016;2022-08-30T19:40:12;25.40;50.90
71837;DHT22;59686;51.716;7.016;2022-08-30T19:42:40;25.40;51.00
71837;DHT22;59686;51.716;7.016;2022-08-30T19:45:10;25.40;51.00
71837;DHT22;59686;51.716;7.016;2022-08-30T19:47:38;25.40;51.50